createdAt,value
2023-11-05T00:00:40.155Z,963
2023-11-05T00:10:40.146Z,962.9
2023-11-05T00:20:40.100Z,962.8
2023-11-05T00:30:40.081Z,962.7
2023-11-05T00:40:40.058Z,962.5
2023-11-05T00:50:40.014Z,962.4
2023-11-05T01:00:40.022Z,962.3
2023-11-05T01:10:39.957Z,962.1
2023-11-05T01:20:39.934Z,961.9
2023-11-05T01:30:39.894Z,961.7
2023-11-05T01:40:39.877Z,961.6
2023-11-05T01:50:39.847Z,961.5
2023-11-05T02:00:39.814Z,961.2
2023-11-05T02:10:39.785Z,961.1
2023-11-05T02:20:39.796Z,961
2023-11-05T02:30:39.733Z,960.8
2023-11-05T02:40:39.719Z,960.7
2023-11-05T02:50:39.663Z,960.6
2023-11-05T03:00:39.649Z,960.5
2023-11-05T03:10:39.599Z,960.5
2023-11-05T03:20:39.563Z,960.4
2023-11-05T03:30:39.539Z,960.5
2023-11-05T03:40:39.524Z,960.5
2023-11-05T03:50:39.476Z,960.5
2023-11-05T04:00:39.485Z,960.6
2023-11-05T04:10:39.419Z,960.6
2023-11-05T04:20:39.420Z,960.6
2023-11-05T04:30:39.357Z,960.6
2023-11-05T04:40:39.339Z,960.6
2023-11-05T04:50:39.292Z,960.6
2023-11-05T05:00:39.265Z,960.6
2023-11-05T05:10:39.397Z,960.6
2023-11-05T05:20:39.213Z,960.5
2023-11-05T05:30:39.198Z,960.5
2023-11-05T05:40:39.156Z,960.5
2023-11-05T05:50:39.144Z,960.6
2023-11-05T06:00:39.100Z,960.8
2023-11-05T06:10:39.065Z,960.9
2023-11-05T06:20:39.041Z,960.9
2023-11-05T06:30:39.014Z,961
2023-11-05T06:40:38.989Z,961.1
2023-11-05T06:50:38.943Z,961.2
2023-11-05T07:00:38.935Z,961.3
2023-11-05T07:10:38.891Z,961.3
2023-11-05T07:20:38.874Z,961.4
2023-11-05T07:30:38.836Z,961.5
2023-11-05T07:40:38.815Z,961.8
2023-11-05T07:50:38.792Z,961.9
2023-11-05T08:00:38.752Z,962.1
2023-11-05T08:10:38.743Z,962.3
2023-11-05T08:20:38.693Z,962.5
2023-11-05T08:30:38.693Z,962.6
2023-11-05T08:40:38.636Z,962.8
2023-11-05T08:50:38.630Z,963.1
2023-11-05T09:00:38.645Z,963.3
2023-11-05T09:10:38.553Z,963.5
2023-11-05T09:20:38.498Z,963.8
2023-11-05T09:30:38.571Z,964
2023-11-05T09:40:38.516Z,964.2
2023-11-05T09:50:38.436Z,964.4
2023-11-05T10:00:38.389Z,964.5
2023-11-05T10:10:38.366Z,964.7
2023-11-05T10:20:38.349Z,964.8
2023-11-05T10:30:38.306Z,965.1
2023-11-05T10:40:38.278Z,965.4
2023-11-05T10:50:38.252Z,965.7
2023-11-05T11:00:38.238Z,966
2023-11-05T11:10:38.190Z,966.1
2023-11-05T11:20:38.468Z,966.3
2023-11-05T11:30:38.131Z,966.6
2023-11-05T11:40:38.101Z,966.9
2023-11-05T11:50:38.407Z,967.3
2023-11-05T12:00:38.371Z,967.5
2023-11-05T12:10:38.102Z,967.7
2023-11-05T12:20:37.994Z,968
2023-11-05T12:30:37.970Z,968.4
2023-11-05T12:40:37.935Z,968.7
2023-11-05T12:50:37.905Z,968.9
2023-11-05T13:00:37.872Z,969.1
2023-11-05T13:10:37.836Z,969.2
2023-11-05T13:20:37.806Z,969.4
2023-11-05T13:30:37.784Z,969.6
2023-11-05T13:40:37.736Z,970
2023-11-05T13:50:37.727Z,970.4
2023-11-05T14:00:37.692Z,970.7
2023-11-05T14:10:37.653Z,971
2023-11-05T14:20:37.645Z,971.3
2023-11-05T14:30:37.601Z,971.7
2023-11-05T14:40:37.568Z,972.1
2023-11-05T14:50:37.521Z,972.5
2023-11-05T15:00:37.491Z,972.9
2023-11-05T15:10:37.480Z,973.2
2023-11-05T15:20:37.480Z,973.5
2023-11-05T15:30:37.415Z,973.8
2023-11-05T15:40:37.392Z,974
2023-11-05T15:50:37.354Z,974.4
2023-11-05T16:00:37.319Z,974.6
2023-11-05T16:10:37.300Z,975
2023-11-05T16:20:37.269Z,975.3
2023-11-05T16:30:37.241Z,975.6
2023-11-05T16:40:37.202Z,976
2023-11-05T16:50:37.196Z,976.2
2023-11-05T17:00:37.147Z,976.6
2023-11-05T17:10:37.119Z,976.9
2023-11-05T17:20:37.092Z,977.1
2023-11-05T17:30:37.078Z,977.4
2023-11-05T17:40:37.023Z,977.6
2023-11-05T17:50:36.996Z,977.9
2023-11-05T18:00:36.968Z,978.2
2023-11-05T18:10:36.938Z,978.4
2023-11-05T18:20:36.905Z,978.6
2023-11-05T18:30:36.887Z,978.7
2023-11-05T18:40:36.848Z,979
2023-11-05T18:50:36.834Z,979.1
2023-11-05T19:00:36.798Z,979.3
2023-11-05T19:10:36.757Z,979.4
2023-11-05T19:20:36.730Z,979.5
2023-11-05T19:30:36.698Z,979.7
2023-11-05T19:40:36.662Z,980
2023-11-05T19:50:36.660Z,980.2
2023-11-05T20:00:36.612Z,980.5
2023-11-05T20:10:36.669Z,980.9
2023-11-05T20:20:36.553Z,981.1
2023-11-05T20:30:36.508Z,981.2
2023-11-05T20:40:36.556Z,981.4
2023-11-05T20:50:36.453Z,981.6
2023-11-05T21:00:36.446Z,981.8
2023-11-05T21:10:36.400Z,982
2023-11-05T21:20:36.372Z,982.1
2023-11-05T21:30:36.332Z,982.3
2023-11-05T21:40:36.314Z,982.4
2023-11-05T21:50:36.291Z,982.5
2023-11-05T22:00:36.247Z,982.6
2023-11-05T22:10:36.206Z,982.7
2023-11-05T22:20:36.197Z,982.7
2023-11-05T22:30:36.162Z,982.8
2023-11-05T22:40:36.140Z,982.9
2023-11-05T22:50:36.102Z,983.1
2023-11-05T23:00:36.059Z,983.2
2023-11-05T23:10:36.044Z,983.3
2023-11-05T23:20:36.011Z,983.5
2023-11-05T23:30:35.997Z,983.6
2023-11-05T23:40:35.960Z,983.7
2023-11-05T23:50:35.935Z,983.8
